Time;durP1;ratioP1;P1;durP2;ratioP2;P2;SDS_P1;SDS_P2;PMS_P1;PMS_P2;Temp;Humidity;BMP_temperature;BMP_pressure;BME280_temperature;BME280_humidity;BME280_pressure;Samples;Min_cycle;Max_cycle;Signal;HPM_P1;HPM_P2
2023/01/28 00:01:04;;;;;;;0.10;0.10;;;2.50;99.90;;;2.35;100.00;101211.03;4876415;29;20638;-79
2023/01/28 00:03:31;;;;;;;0.20;0.20;;;2.50;99.90;;;2.34;100.00;101204.00;4876091;29;20315;-76
2023/01/28 00:06:12;;;;;;;0.10;0.10;;;2.50;99.90;;;2.35;100.00;101205.81;4876349;29;20239;-76
2023/01/28 00:08:40;;;;;;;0.15;0.15;;;2.50;99.90;;;2.34;100.00;101199.69;4872994;29;20292;-76
2023/01/28 00:11:11;;;;;;;0.20;0.20;;;2.50;99.90;;;2.37;100.00;101201.56;4876088;29;20767;-77
2023/01/28 00:13:39;;;;;;;0.10;0.10;;;2.60;99.90;;;2.36;100.00;101192.84;4875422;29;20252;-77
2023/01/28 00:16:08;;;;;;;0.20;0.20;;;2.60;99.90;;;2.35;100.00;101184.94;4873327;29;20239;-76
2023/01/28 00:18:36;;;;;;;0.20;0.20;;;2.50;99.90;;;2.33;100.00;101184.84;4875205;29;20240;-76
2023/01/28 00:21:12;;;;;;;0.20;0.20;;;2.50;99.90;;;2.34;100.00;101183.13;4873829;29;20359;-76
2023/01/28 00:23:42;;;;;;;0.20;0.20;;;2.50;99.90;;;2.33;100.00;101178.72;4871433;29;20324;-76
2023/01/28 00:26:14;;;;;;;0.20;0.20;;;2.70;99.90;;;2.34;100.00;101175.31;4874777;29;20701;-76
2023/01/28 00:28:42;;;;;;;0.20;0.20;;;2.50;99.90;;;2.35;100.00;101184.94;4878356;29;20236;-76
2023/01/28 00:31:21;;;;;;;0.20;0.20;;;2.50;99.90;;;2.31;100.00;101178.66;4875805;29;20343;-77
2023/01/28 00:33:50;;;;;;;0.20;0.20;;;2.60;99.90;;;2.34;100.00;101170.97;4874919;29;20642;-76
2023/01/28 00:36:19;;;;;;;0.20;0.20;;;2.70;99.90;;;2.36;100.00;101168.47;4875534;29;20236;-76
2023/01/28 00:38:58;;;;;;;0.20;0.20;;;2.70;99.90;;;2.32;100.00;101172.63;4872645;29;20748;-76
2023/01/28 00:41:28;;;;;;;0.20;0.20;;;2.50;99.90;;;2.31;100.00;101168.22;4874187;29;20235;-76
2023/01/28 00:43:55;;;;;;;0.20;0.20;;;2.50;99.90;;;2.32;100.00;101171.72;4871979;29;20244;-76
2023/01/28 00:46:25;;;;;;;0.20;0.20;;;2.50;99.90;;;2.30;100.00;101169.03;4884991;29;20229;-77
2023/01/28 00:48:52;;;;;;;0.10;0.10;;;2.90;99.90;;;2.32;100.00;101169.09;4875058;29;20232;-76
2023/01/28 00:51:20;;;;;;;0.20;0.20;;;2.50;99.90;;;2.31;100.00;101169.91;4868386;29;20229;-76
2023/01/28 00:53:47;;;;;;;0.93;0.93;;;2.60;99.90;;;2.32;100.00;101172.63;4872806;29;20248;-76
2023/01/28 00:56:16;;;;;;;0.20;0.20;;;2.60;99.90;;;2.29;100.00;101163.72;4875313;29;20279;-76
2023/01/28 00:58:44;;;;;;;0.20;0.20;;;2.50;99.90;;;2.32;100.00;101175.22;4874266;29;20316;-76
2023/01/28 01:01:15;;;;;;;0.20;0.20;;;2.60;99.90;;;2.30;100.00;101173.34;4870951;29;20709;-75
2023/01/28 01:03:43;;;;;;;0.10;0.10;;;2.90;99.90;;;2.29;100.00;101163.72;4873813;29;20256;-76
2023/01/28 01:06:13;;;;;;;0.17;0.17;;;2.40;99.90;;;2.28;100.00;101178.47;4887112;29;20232;-75
2023/01/28 01:08:41;;;;;;;0.10;0.10;;;2.50;99.90;;;2.26;100.00;101177.50;4871393;29;20264;-77
2023/01/28 01:11:10;;;;;;;0.10;0.10;;;2.50;99.90;;;2.24;100.00;101173.91;4870350;29;20228;-76
2023/01/28 01:13:38;;;;;;;0.20;0.20;;;2.50;99.90;;;2.22;100.00;101180.75;4873993;29;20264;-76
2023/01/28 01:16:15;;;;;;;0.10;0.10;;;2.40;99.90;;;2.21;100.00;101179.88;4875727;29;20318;-76
2023/01/28 01:18:42;;;;;;;0.10;0.10;;;2.40;99.90;;;2.17;100.00;101177.00;4872498;29;20244;-76
2023/01/28 01:21:17;;;;;;;0.20;0.20;;;2.50;99.90;;;2.18;100.00;101182.31;4890418;29;20244;-76
2023/01/28 01:23:45;;;;;;;0.20;0.20;;;2.50;99.90;;;2.16;100.00;101186.53;4873699;29;20267;-76
2023/01/28 01:26:13;;;;;;;0.20;0.20;;;2.60;99.90;;;2.16;100.00;101186.53;4874273;29;20277;-76
2023/01/28 01:28:41;;;;;;;0.20;0.20;;;2.30;99.90;;;2.14;100.00;101192.50;4869774;29;20233;-76
2023/01/28 01:31:16;;;;;;;0.10;0.10;;;2.40;99.90;;;2.13;100.00;101185.47;4872645;29;20269;-76
2023/01/28 01:33:46;;;;;;;0.20;0.20;;;2.30;99.90;;;2.14;100.00;101192.50;4874234;29;20240;-76
2023/01/28 01:36:16;;;;;;;0.17;0.17;;;2.30;99.90;;;2.13;100.00;101196.81;4873313;29;20252;-76
2023/01/28 01:38:43;;;;;;;0.20;0.20;;;2.30;99.90;;;2.10;100.00;101194.03;4873495;29;20289;-76
2023/01/28 01:41:28;;;;;;;0.28;0.28;;;2.30;99.90;;;2.10;100.00;101196.66;4881028;29;20749;-76
2023/01/28 01:44:01;;;;;;;0.20;0.20;;;2.30;99.90;;;2.12;100.00;101196.72;4874573;29;20240;-76
2023/01/28 01:46:42;;;;;;;0.20;0.20;;;2.50;99.90;;;2.11;100.00;101194.94;4873745;29;20244;-76
2023/01/28 01:49:26;;;;;;;0.10;0.10;;;2.30;99.90;;;2.11;100.00;101200.16;4886822;29;20240;-76
2023/01/28 01:52:01;;;;;;;0.20;0.20;;;2.30;99.90;;;2.10;100.00;101200.97;4870751;29;20232;-77
2023/01/28 01:54:31;;;;;;;0.20;0.20;;;2.30;99.90;;;2.07;100.00;101191.25;4888762;29;20295;-76
2023/01/28 01:57:00;;;;;;;0.20;0.20;;;2.90;99.90;;;2.07;100.00;101193.88;4887307;29;20260;-76
2023/01/28 01:59:31;;;;;;;0.10;0.10;;;2.30;99.90;;;2.07;100.00;101195.59;4883856;29;20244;-76
2023/01/28 02:02:06;;;;;;;0.20;0.20;;;2.20;99.90;;;2.07;100.00;101204.31;4880780;29;20240;-76
2023/01/28 02:04:43;;;;;;;0.75;0.75;;;2.20;99.90;;;2.05;100.00;101205.94;4870693;29;20243;-76
2023/01/28 02:07:14;;;;;;;0.20;0.20;;;2.20;99.90;;;2.03;100.00;101202.34;4874583;29;20243;-76
2023/01/28 02:09:42;;;;;;;0.15;0.15;;;2.30;99.90;;;2.05;100.00;101202.44;4873498;29;20390;-76
2023/01/28 02:12:17;;;;;;;0.20;0.20;;;2.20;99.90;;;2.03;100.00;101201.44;4873685;29;20267;-76
2023/01/28 02:15:13;;;;;;;0.20;0.20;;;2.20;99.90;;;2.05;100.00;101192.00;4877094;29;20615;-75
2023/01/28 02:17:41;;;;;;;0.20;0.20;;;2.10;99.90;;;2.04;100.00;101184.97;4868895;29;20248;-76
2023/01/28 02:20:12;;;;;;;0.20;0.20;;;2.20;99.90;;;2.04;100.00;101196.31;4870885;29;20318;-76
2023/01/28 02:22:54;;;;;;;0.20;0.20;;;2.20;99.90;;;2.04;100.00;101187.59;4872367;29;20244;-75
2023/01/28 02:25:40;;;;;;;0.20;0.20;;;2.20;99.90;;;2.02;100.00;101195.31;4873329;29;20280;-76
2023/01/28 02:28:34;;;;;;;0.20;0.20;;;2.20;99.90;;;2.01;100.00;101190.03;4872499;29;20256;-76
2023/01/28 02:31:24;;;;;;;0.17;0.17;;;2.20;99.90;;;1.99;100.00;101189.94;4879281;29;20229;-77
2023/01/28 02:34:24;;;;;;;0.20;0.20;;;2.20;99.90;;;1.96;100.00;101195.00;4877291;29;20224;-76
2023/01/28 02:37:08;;;;;;;0.10;0.10;;;2.10;99.90;;;1.95;100.00;101201.03;4864457;29;20232;-76
2023/01/28 02:39:44;;;;;;;0.20;0.20;;;2.10;99.90;;;1.95;100.00;101202.72;4870023;29;20264;-76
2023/01/28 02:42:18;;;;;;;0.10;0.10;;;2.10;99.90;;;1.93;100.00;101189.59;4887022;29;20667;-75
2023/01/28 02:44:46;;;;;;;0.20;0.20;;;2.10;99.90;;;1.92;100.00;101186.09;4890526;29;20248;-76
2023/01/28 02:50:04;;;;;;;0.20;0.20;;;2.10;99.90;;;1.92;100.00;101182.59;4877784;29;20291;-76
2023/01/28 02:56:20;;;;;;;0.20;0.20;;;2.10;99.90;;;1.89;100.00;101185.03;4878086;29;20260;-76
2023/01/28 02:59:00;;;;;;;0.20;0.20;;;2.00;99.90;;;1.88;100.00;101173.69;4876276;29;20248;-76
2023/01/28 03:01:43;;;;;;;0.10;0.10;;;2.30;99.90;;;1.88;100.00;101173.69;4870039;29;20259;-76
2023/01/28 03:04:26;;;;;;;0.20;0.20;;;2.10;99.90;;;1.88;100.00;101172.81;4873137;29;20240;-76
2023/01/28 03:07:03;;;;;;;0.20;0.20;;;2.10;99.90;;;1.88;100.00;101163.25;4891017;29;20260;-76
2023/01/28 03:09:31;;;;;;;0.20;0.20;;;2.10;99.90;;;1.85;100.00;101155.28;4873588;29;20251;-76
2023/01/28 03:38:51;;;;;;;0.20;0.20;;;2.00;99.90;;;1.83;100.00;101180.38;4867829;29;20244;-76
2023/01/28 03:41:25;;;;;;;0.20;0.20;;;2.00;99.90;;;1.81;100.00;101186.31;4876064;29;20267;-76
2023/01/28 03:43:52;;;;;;;0.20;0.20;;;2.20;99.90;;;1.81;100.00;101182.00;4874993;29;20296;-78
2023/01/28 03:46:19;;;;;;;0.10;0.10;;;2.00;99.90;;;1.82;100.00;101193.31;4877547;29;20257;-76
2023/01/28 03:48:46;;;;;;;0.10;0.10;;;2.00;99.90;;;1.80;100.00;101194.94;4876922;29;20247;-76
2023/01/28 03:51:14;;;;;;;0.30;0.30;;;2.10;99.90;;;1.81;100.00;101199.34;4877250;29;20232;-75
2023/01/28 03:53:41;;;;;;;0.20;0.20;;;2.10;99.90;;;1.80;100.00;101197.56;4875844;29;20232;-76
2023/01/28 03:56:08;;;;;;;0.30;0.30;;;2.40;99.90;;;1.80;100.00;101192.34;4874268;29;20236;-76
2023/01/28 03:58:55;;;;;;;0.20;0.20;;;2.00;99.90;;;1.79;100.00;101203.59;4872160;29;20260;-76
2023/01/28 04:01:23;;;;;;;0.20;0.20;;;2.30;99.90;;;1.77;100.00;101213.94;4876575;29;20232;-76
2023/01/28 04:03:50;;;;;;;0.20;0.20;;;2.00;99.90;;;1.78;100.00;101213.13;4875740;29;20247;-76
2023/01/28 04:06:17;;;;;;;0.20;0.20;;;2.00;99.90;;;1.77;100.00;101216.53;4873881;29;20658;-77
2023/01/28 04:08:47;;;;;;;0.20;0.20;;;2.10;99.90;;;1.76;100.00;101213.84;4874983;29;20336;-77
2023/01/28 04:11:14;;;;;;;0.20;0.20;;;2.00;99.90;;;1.75;100.00;101223.38;4875381;29;20237;-76
2023/01/28 04:13:42;;;;;;;0.10;0.10;;;2.00;99.90;;;1.75;100.00;101225.09;4889331;29;20311;-77
2023/01/28 04:16:11;;;;;;;0.20;0.20;;;2.00;99.90;;;1.74;100.00;101218.06;4874016;29;20256;-78
2023/01/28 04:18:38;;;;;;;0.10;0.10;;;2.80;99.90;;;1.74;100.00;101218.06;4874378;29;20603;-76
2023/01/28 04:21:05;;;;;;;0.20;0.20;;;2.00;99.90;;;1.73;100.00;101225.00;4876456;29;20323;-76
2023/01/28 04:23:32;;;;;;;0.17;0.17;;;2.10;99.90;;;1.72;100.00;101223.22;4875481;29;20260;-76
2023/01/28 04:25:59;;;;;;;0.20;0.20;;;1.90;99.90;;;1.71;100.00;101225.72;4876752;29;20236;-77
2023/01/28 04:28:26;;;;;;;0.20;0.20;;;2.70;99.90;;;1.71;100.00;101230.94;4874105;29;20248;-76
2023/01/28 04:30:53;;;;;;;0.20;0.20;;;1.90;99.90;;;1.72;100.00;101230.13;4874381;29;20260;-76
2023/01/28 04:33:21;;;;;;;0.20;0.20;;;1.80;99.90;;;1.70;100.00;101227.44;4872531;29;20288;-77
2023/01/28 04:35:48;;;;;;;0.20;0.20;;;1.90;99.90;;;1.70;100.00;101229.16;4875331;29;20228;-76
2023/01/28 04:38:15;;;;;;;0.20;0.20;;;2.00;99.90;;;1.70;100.00;101226.53;4866131;29;20276;-76
2023/01/28 04:40:42;;;;;;;0.13;0.13;;;1.90;99.90;;;1.69;100.00;101228.25;4869632;29;20308;-76
2023/01/28 04:43:09;;;;;;;0.10;0.10;;;2.00;99.90;;;1.66;100.00;101225.47;4874443;29;20307;-78
2023/01/28 04:45:36;;;;;;;0.20;0.20;;;2.10;99.90;;;1.65;100.00;101225.38;4873575;29;20240;-76
2023/01/28 04:48:03;;;;;;;0.20;0.20;;;1.90;99.90;;;1.61;100.00;101234.72;4873702;29;20263;-77
2023/01/28 04:50:30;;;;;;;0.13;0.13;;;1.80;99.90;;;1.64;100.00;101232.31;4887812;29;20315;-76
2023/01/28 04:52:57;;;;;;;0.20;0.20;;;1.80;99.90;;;1.62;100.00;101231.31;4874116;29;20284;-76
2023/01/28 04:55:24;;;;;;;0.20;0.20;;;1.80;99.90;;;1.65;100.00;101228.88;4875751;29;20311;-76
2023/01/28 04:57:51;;;;;;;0.20;0.20;;;1.80;99.90;;;1.65;100.00;101228.88;4875040;29;20717;-77
2023/01/28 05:00:18;;;;;;;0.20;0.20;;;1.90;99.90;;;1.66;100.00;101238.50;4875495;29;20236;-76
2023/01/28 05:02:45;;;;;;;0.20;0.20;;;1.90;99.90;;;1.63;100.00;101227.91;4870324;29;20296;-76
2023/01/28 05:05:12;;;;;;;0.20;0.20;;;2.00;99.90;;;1.62;100.00;101233.91;4875581;29;20276;-77
2023/01/28 05:07:40;;;;;;;0.20;0.20;;;1.80;99.90;;;1.61;100.00;101232.13;4874182;29;20251;-76
2023/01/28 05:10:08;;;;;;;0.20;0.20;;;1.70;99.90;;;1.64;100.00;101223.59;4874935;29;20293;-76
2023/01/28 05:12:35;;;;;;;0.10;0.10;;;1.80;99.90;;;1.61;100.00;101232.13;4865148;29;20312;-76
2023/01/28 05:15:03;;;;;;;0.20;0.20;;;1.80;99.90;;;1.62;100.00;101228.69;4875883;29;20244;-76
2023/01/28 05:17:30;;;;;;;0.20;0.20;;;1.80;99.90;;;1.60;100.00;101233.84;4873435;29;20264;-76
2023/01/28 05:19:57;;;;;;;0.10;0.10;;;1.80;99.90;;;1.62;100.00;101227.81;4875961;29;20243;-76
2023/01/28 05:22:24;;;;;;;0.10;0.10;;;1.80;99.90;;;1.62;100.00;101238.22;4888252;29;20273;-76
2023/01/28 05:24:51;;;;;;;0.10;0.10;;;1.80;99.90;;;1.60;100.00;101238.16;4869379;29;20236;-76
2023/01/28 05:27:18;;;;;;;0.20;0.20;;;1.90;99.90;;;1.59;100.00;101238.97;4873199;29;20272;-76
2023/01/28 05:29:45;;;;;;;0.20;0.20;;;1.80;99.90;;;1.60;100.00;101244.25;4875628;29;20244;-76
2023/01/28 05:32:12;;;;;;;0.17;0.17;;;1.80;99.90;;;1.60;100.00;101243.38;4874052;29;20235;-76
2023/01/28 05:34:39;;;;;;;0.20;0.20;;;2.10;99.90;;;1.60;100.00;101251.19;4872576;29;20237;-76
2023/01/28 05:37:06;;;;;;;0.10;0.10;;;1.80;99.90;;;1.59;100.00;101247.69;4874189;29;20285;-76
2023/01/28 05:39:33;;;;;;;0.20;0.20;;;1.80;99.90;;;1.58;100.00;101255.41;4872597;29;20261;-75
2023/01/28 05:42:00;;;;;;;0.13;0.13;;;1.80;99.90;;;1.59;100.00;101255.50;4889571;29;20236;-77
2023/01/28 05:44:27;;;;;;;0.20;0.20;;;2.00;99.90;;;1.58;100.00;101258.91;4874768;29;20248;-76
2023/01/28 05:46:54;;;;;;;0.20;0.20;;;2.30;99.90;;;1.57;100.00;101254.50;4874985;29;20259;-76
2023/01/28 05:49:21;;;;;;;0.10;0.10;;;1.80;99.90;;;1.56;100.00;101260.53;4874235;29;20268;-76
2023/01/28 05:51:48;;;;;;;0.10;0.10;;;1.80;99.90;;;1.56;100.00;101260.53;4872984;29;20301;-76
2023/01/28 05:54:15;;;;;;;0.20;0.20;;;1.80;99.90;;;1.56;100.00;101270.97;4874671;29;20256;-76
2023/01/28 05:56:42;;;;;;;0.20;0.20;;;2.00;99.90;;;1.56;100.00;101268.34;4872084;29;20304;-76
2023/01/28 05:59:10;;;;;;;0.20;0.20;;;1.80;99.90;;;1.58;100.00;101276.25;4892669;29;20243;-76
2023/01/28 06:01:38;;;;;;;0.10;0.10;;;1.80;99.90;;;1.56;100.00;101273.56;4877423;29;20264;-76
2023/01/28 06:04:05;;;;;;;0.10;0.10;;;2.00;99.90;;;1.58;100.00;101277.16;4876900;29;20327;-76
2023/01/28 06:06:32;;;;;;;0.20;0.20;;;1.90;99.90;;;1.57;100.00;101269.25;4876470;29;20248;-76
2023/01/28 06:08:59;;;;;;;0.10;0.10;;;1.80;99.90;;;1.57;100.00;101277.06;4873393;29;20248;-76
2023/01/28 06:11:26;;;;;;;0.20;0.20;;;1.80;99.90;;;1.55;100.00;101281.31;4874184;29;20267;-77
2023/01/28 06:13:53;;;;;;;0.20;0.20;;;2.10;99.90;;;1.55;100.00;101284.81;4875507;29;20253;-78
2023/01/28 06:16:20;;;;;;;0.20;0.20;;;2.00;99.90;;;1.56;100.00;101284.00;4858198;29;20267;-76
2023/01/28 06:18:47;;;;;;;0.20;0.20;;;1.80;99.90;;;1.58;100.00;101289.31;4890084;29;20295;-76
2023/01/28 06:21:14;;;;;;;0.17;0.17;;;1.80;99.90;;;1.57;100.00;101291.00;4876941;29;20335;-76
2023/01/28 06:23:41;;;;;;;0.20;0.20;;;1.80;99.90;;;1.55;100.00;101297.84;4877235;29;20275;-77
2023/01/28 06:26:08;;;;;;;0.20;0.20;;;1.80;99.90;;;1.53;100.00;101299.47;4878420;29;20232;-76
2023/01/28 06:28:35;;;;;;;0.20;0.20;;;2.30;99.90;;;1.55;100.00;101302.16;4875913;29;20264;-76
2023/01/28 06:31:02;;;;;;;0.20;0.20;;;1.80;99.90;;;1.54;100.00;101301.25;4875102;29;20705;-76
2023/01/28 06:33:29;;;;;;;0.20;0.20;;;1.70;99.90;;;1.51;100.00;101305.41;4892690;29;20228;-76
2023/01/28 06:35:56;;;;;;;0.20;0.20;;;1.70;99.90;;;1.51;100.00;101310.59;4878112;29;20265;-76
2023/01/28 06:38:23;;;;;;;0.20;0.20;;;1.70;99.90;;;1.50;100.00;101308.81;4873731;29;20393;-76
2023/01/28 06:40:54;;;;;;;0.20;0.20;;;1.70;99.90;;;1.52;100.00;101323.72;4874120;29;20308;-77
2023/01/28 06:43:26;;;;;;;0.10;0.10;;;2.10;99.90;;;1.50;100.00;101312.31;4871685;29;20228;-78
2023/01/28 06:45:54;;;;;;;0.20;0.20;;;2.50;99.90;;;1.51;100.00;101316.72;4872442;29;20233;-77
2023/01/28 06:48:21;;;;;;;0.10;0.10;;;1.70;99.90;;;1.51;100.00;101316.72;4871780;29;20295;-76
2023/01/28 06:50:49;;;;;;;0.20;0.20;;;1.70;99.90;;;1.50;100.00;101327.94;4899231;23;20240;-79
2023/01/28 06:53:17;;;;;;;0.30;0.30;;;2.40;99.90;;;1.50;100.00;101327.94;4891105;29;20621;-79
2023/01/28 06:55:44;;;;;;;0.20;0.20;;;2.80;99.90;;;1.52;100.00;101331.56;4892715;29;20287;-79
2023/01/28 06:58:13;;;;;;;0.20;0.20;;;2.30;99.90;;;1.54;100.00;101335.16;4894873;29;20228;-79
2023/01/28 07:00:40;;;;;;;0.20;0.20;;;2.90;99.90;;;1.50;100.00;101332.28;4892326;29;20227;-80
2023/01/28 07:03:07;;;;;;;0.10;0.10;;;1.70;99.90;;;1.50;100.00;101333.16;4889255;29;20628;-81
2023/01/28 07:05:34;;;;;;;0.20;0.20;;;3.00;99.90;;;1.50;100.00;101327.06;4892746;29;20240;-79
2023/01/28 07:08:02;;;;;;;0.20;0.20;;;1.90;99.90;;;1.48;100.00;101326.97;4891592;29;20251;-79
2023/01/28 07:10:29;;;;;;;0.30;0.30;;;1.70;99.90;;;1.50;100.00;101325.34;4894476;29;20260;-80
2023/01/28 07:12:56;;;;;;;0.20;0.20;;;2.10;99.90;;;1.48;100.00;101329.56;4890334;29;20224;-82
2023/01/28 07:15:23;;;;;;;0.30;0.30;;;2.60;99.90;;;1.48;100.00;101326.97;4891234;29;20298;-82
2023/01/28 07:17:50;;;;;;;0.20;0.20;;;2.20;99.90;;;1.48;100.00;101326.06;4888677;29;20308;-85
2023/01/28 07:20:18;;;;;;;0.30;0.30;;;1.70;99.90;;;1.47;100.00;101327.78;4881691;29;20240;-79
2023/01/28 07:22:45;;;;;;;0.10;0.10;;;1.70;99.90;;;1.47;100.00;101332.09;4895752;29;20235;-80
2023/01/28 07:25:14;;;;;;;0.10;0.10;;;2.10;99.90;;;1.49;100.00;101333.06;4889301;29;20303;-83
2023/01/28 07:27:52;;;;;;;0.20;0.20;;;2.90;99.90;;;1.49;100.00;101340.91;4892726;29;20236;-82
2023/01/28 07:30:20;;;;;;;0.20;0.20;;;1.70;99.90;;;1.48;100.00;101329.56;4908471;29;20239;-83
2023/01/28 07:32:53;;;;;;;0.20;0.20;;;1.90;99.90;;;1.48;100.00;101332.19;4894641;29;20696;-81
2023/01/28 07:35:21;;;;;;;0.20;0.20;;;1.70;99.90;;;1.47;100.00;101332.09;4897211;29;20720;-81
2023/01/28 07:37:57;;;;;;;0.20;0.20;;;1.80;99.90;;;1.47;100.00;101325.16;4893386;29;20284;-83
2023/01/28 07:40:26;;;;;;;0.20;0.20;;;1.70;99.90;;;1.48;100.00;101336.50;4904002;29;20246;-82
2023/01/28 07:42:55;;;;;;;0.50;0.50;;;1.70;99.90;;;1.46;100.00;101333.78;4901572;29;20247;-81
2023/01/28 07:45:24;;;;;;;0.20;0.20;;;1.70;99.90;;;1.48;100.00;101331.28;4904679;29;20247;-82
2023/01/28 07:48:01;;;;;;;0.10;0.10;;;1.70;99.90;;;1.49;100.00;101333.97;4900171;29;20390;-83
2023/01/28 07:50:30;;;;;;;0.20;0.20;;;1.70;99.90;;;1.50;100.00;101334.88;4892674;29;20219;-81
2023/01/28 07:52:57;;;;;;;0.20;0.20;;;1.80;99.90;;;1.50;100.00;101343.59;4882004;29;20267;-82
2023/01/28 07:55:24;;;;;;;0.20;0.20;;;1.70;99.90;;;1.50;100.00;101335.78;4896419;29;20243;-82
2023/01/28 07:57:55;;;;;;;0.20;0.20;;;1.70;99.90;;;1.51;100.00;101340.19;4896203;29;20319;-81
2023/01/28 08:00:23;;;;;;;0.20;0.20;;;1.70;99.90;;;1.51;100.00;101348.00;4896628;29;20263;-82
2023/01/28 08:03:03;;;;;;;0.20;0.20;;;1.70;99.90;;;1.54;100.00;101357.72;4897006;29;20255;-81
2023/01/28 08:05:43;;;;;;;0.30;0.30;;;1.70;99.90;;;1.52;100.00;101355.00;4898634;29;20849;-81
2023/01/28 08:08:11;;;;;;;0.30;0.30;;;1.70;99.90;;;1.54;100.00;101342.06;4909915;29;20306;-80
2023/01/28 08:10:38;;;;;;;0.20;0.20;;;1.70;99.90;;;1.55;100.00;101352.59;4898084;29;20243;-81
2023/01/28 08:13:06;;;;;;;0.20;0.20;;;1.90;99.90;;;1.56;100.00;101359.59;4897573;29;20267;-80
2023/01/28 08:15:33;;;;;;;0.20;0.20;;;1.80;99.90;;;1.58;100.00;101351.88;4898115;29;21063;-80
2023/01/28 08:18:03;;;;;;;0.20;0.20;;;1.80;99.90;;;1.58;100.00;101360.59;4894979;29;20240;-82
2023/01/28 08:20:30;;;;;;;0.20;0.20;;;1.80;99.90;;;1.60;100.00;101360.69;4895757;29;20323;-82
2023/01/28 08:23:16;;;;;;;0.30;0.30;;;1.80;99.90;;;1.62;100.00;101363.38;4893352;29;20232;-83
2023/01/28 08:25:45;;;;;;;0.20;0.20;;;1.90;99.90;;;1.61;100.00;101370.31;4890917;29;20304;-83
2023/01/28 08:28:15;;;;;;;0.20;0.20;;;1.90;99.90;;;1.66;100.00;101388.81;4893883;29;20260;-81
2023/01/28 08:30:43;;;;;;;0.20;0.20;;;2.00;99.90;;;1.66;100.00;101378.41;4892784;29;20240;-81
2023/01/28 08:33:14;;;;;;;0.20;0.20;;;1.90;99.90;;;1.66;100.00;101381.91;4893815;29;20227;-82
2023/01/28 08:35:41;;;;;;;0.20;0.20;;;1.90;99.90;;;1.67;100.00;101378.50;4894350;29;20235;-81
2023/01/28 08:38:10;;;;;;;0.20;0.20;;;1.80;99.90;;;1.71;100.00;101387.41;4896797;29;20243;-81
2023/01/28 08:40:37;;;;;;;0.45;0.45;;;1.90;99.90;;;1.72;100.00;101384.88;4891348;29;20295;-82
2023/01/28 08:43:04;;;;;;;0.90;0.90;;;2.00;99.90;;;1.74;100.00;101390.19;4896387;29;20259;-81
2023/01/28 08:45:32;;;;;;;0.15;0.15;;;2.00;99.90;;;1.75;100.00;101384.16;4897611;29;20243;-79
2023/01/28 08:48:03;;;;;;;0.20;0.20;;;2.00;99.90;;;1.76;100.00;101381.63;4893964;29;20263;-80
2023/01/28 08:50:36;;;;;;;0.28;0.28;;;1.90;99.90;;;1.77;100.00;101388.66;4892779;29;20314;-81
2023/01/28 08:53:11;;;;;;;0.20;0.20;;;2.20;99.90;;;1.78;100.00;101381.72;4886987;29;20741;-81
2023/01/28 08:55:38;;;;;;;0.30;0.30;;;2.00;99.90;;;1.81;100.00;101387.13;4884745;29;20243;-81
2023/01/28 08:58:10;;;;;;;0.20;0.20;;;2.20;99.90;;;1.84;100.00;101392.53;4890391;29;20232;-81
2023/01/28 09:00:38;;;;;;;0.20;0.20;;;2.00;99.90;;;1.85;100.00;101383.91;4892341;29;20235;-83
2023/01/28 09:03:06;;;;;;;0.52;0.52;;;2.00;99.90;;;1.86;100.00;101388.31;4894238;29;20299;-83
2023/01/28 09:05:36;;;;;;;0.20;0.20;;;2.30;99.90;;;1.86;100.00;101380.47;4885200;29;20244;-83
2023/01/28 09:08:06;;;;;;;0.20;0.20;;;2.20;99.90;;;1.87;100.00;101396.22;4891869;29;20231;-86
2023/01/28 09:10:36;;;;;;;0.20;0.20;;;2.10;99.90;;;1.92;100.00;101401.69;4894745;29;20246;-81
2023/01/28 09:13:13;;;;;;;0.10;0.10;;;2.10;99.90;;;1.95;100.00;101390.56;4897481;29;20232;-80
2023/01/28 09:15:40;;;;;;;0.20;0.20;;;2.20;99.90;;;1.94;100.00;101392.25;4894949;29;20235;-81
2023/01/28 09:18:08;;;;;;;0.30;0.30;;;2.10;99.90;;;1.97;100.00;101395.03;4895661;29;20235;-81
2023/01/28 09:20:36;;;;;;;0.20;0.20;;;2.30;99.90;;;1.96;100.00;101393.25;4891356;29;20350;-81
2023/01/28 09:23:04;;;;;;;0.20;0.20;;;2.30;99.90;;;1.99;100.00;101397.75;4893256;29;20236;-81
2023/01/28 09:25:31;;;;;;;0.20;0.20;;;2.30;99.90;;;2.02;100.00;101404.03;4883243;29;20236;-81
2023/01/28 09:27:58;;;;;;;0.20;0.20;;;2.20;99.90;;;2.02;100.00;101400.53;4890476;29;20267;-81
2023/01/28 09:30:26;;;;;;;0.30;0.30;;;2.20;99.90;;;2.04;100.00;101404.13;4886356;29;20259;-81
2023/01/28 09:32:55;;;;;;;0.20;0.20;;;2.20;99.90;;;2.10;100.00;101415.81;4889884;29;20598;-80
2023/01/28 09:35:23;;;;;;;0.20;0.20;;;2.30;99.90;;;2.09;100.00;101415.72;4887700;29;20257;-82
2023/01/28 09:37:50;;;;;;;0.10;0.10;;;2.30;99.90;;;2.10;100.00;101409.72;4888361;29;20681;-81
2023/01/28 09:40:23;;;;;;;0.20;0.20;;;2.30;99.90;;;2.12;100.00;101416.81;4891414;29;20331;-82
2023/01/28 09:43:06;;;;;;;0.20;0.20;;;2.30;99.90;;;2.20;100.00;101431.22;4901500;29;20263;-85
2023/01/28 09:45:41;;;;;;;0.20;0.20;;;2.40;99.90;;;2.18;100.00;101431.94;4887803;29;20374;-84
2023/01/28 09:48:17;;;;;;;0.20;0.20;;;2.40;99.90;;;2.19;100.00;101434.63;4888630;29;20368;-83
2023/01/28 09:50:50;;;;;;;0.20;0.20;;;2.40;99.90;;;2.23;100.00;101436.59;4900801;29;20247;-81
2023/01/28 09:53:36;;;;;;;0.20;0.20;;;2.40;99.90;;;2.25;100.00;101436.69;4908366;29;20271;-80
2023/01/28 09:56:10;;;;;;;0.20;0.20;;;2.40;99.90;;;2.28;100.00;101436.88;4904185;29;20255;-80
2023/01/28 09:58:37;;;;;;;0.20;0.20;;;2.50;99.90;;;2.21;100.00;101422.56;4890640;29;20296;-81
2023/01/28 10:01:35;;;;;;;0.20;0.20;;;2.40;99.90;;;2.23;100.00;101425.25;4903208;29;20236;-83
2023/01/28 10:04:53;;;;;;;0.20;0.20;;;2.40;99.90;;;2.30;100.00;101436.97;4888619;29;20717;-82
2023/01/28 10:07:56;;;;;;;0.28;0.28;;;2.50;99.90;;;2.29;100.00;101432.56;4873519;29;20249;-81
2023/01/28 10:10:33;;;;;;;0.20;0.20;;;2.50;99.90;;;2.25;100.00;101421.03;4888850;29;20219;-81
2023/01/28 10:14:00;;;;;;;0.30;0.30;;;2.50;99.90;;;2.29;100.00;101428.22;4901316;29;20290;-80
2023/01/28 10:16:50;;;;;;;0.20;0.20;;;2.50;99.90;;;2.34;100.00;101431.09;4882977;29;20240;-81
2023/01/28 10:19:29;;;;;;;0.20;0.20;;;2.50;99.90;;;2.38;100.00;101425.25;4879116;29;20331;-81
2023/01/28 10:22:10;;;;;;;0.20;0.20;;;2.70;99.90;;;2.43;100.00;101426.41;4887123;29;20239;-82
2023/01/28 10:24:45;;;;;;;0.20;0.20;;;2.60;99.90;;;2.41;100.00;101430.66;4887137;29;20319;-81
2023/01/28 10:27:23;;;;;;;0.10;0.10;;;2.60;99.90;;;2.44;100.00;101429.09;4914653;29;20277;-81
2023/01/28 10:29:52;;;;;;;0.20;0.20;;;2.60;99.90;;;2.47;100.00;101434.50;4894291;29;20234;-81
2023/01/28 10:32:35;;;;;;;0.20;0.20;;;2.60;99.90;;;2.50;100.00;101433.78;4891841;29;20248;-79
2023/01/28 10:35:03;;;;;;;0.28;0.28;;;2.70;99.90;;;2.50;100.00;101428.56;4881997;29;20240;-79
2023/01/28 10:37:36;;;;;;;0.30;0.30;;;2.70;99.90;;;2.54;100.00;101427.94;4892582;29;20243;-82
2023/01/28 10:40:05;;;;;;;0.20;0.20;;;2.70;99.90;;;2.53;99.68;101426.13;4887156;29;20323;-81
2023/01/28 10:42:37;;;;;;;0.20;0.20;;;2.70;99.90;;;2.60;99.92;101430.91;4905427;29;20907;-81
2023/01/28 10:45:28;;;;;;;0.20;0.20;;;2.80;99.90;;;2.62;99.28;101437.13;4888452;29;20252;-79
2023/01/28 10:48:13;;;;;;;0.20;0.20;;;2.80;99.90;;;2.64;99.25;101418.94;4877180;29;20228;-79
2023/01/28 10:50:55;;;;;;;0.20;0.20;;;2.80;99.90;;;2.64;98.70;101419.84;4909584;29;20231;-80
2023/01/28 10:53:45;;;;;;;0.20;0.20;;;2.80;99.90;;;2.73;99.04;101435.13;4890927;29;20275;-84
2023/01/28 10:56:23;;;;;;;0.20;0.20;;;2.90;99.90;;;2.76;98.81;101433.59;4900374;29;20780;-80
2023/01/28 10:59:04;;;;;;;0.20;0.20;;;2.90;99.90;;;2.79;98.84;101433.75;4885477;29;20260;-83
2023/01/28 11:01:48;;;;;;;0.20;0.20;;;2.90;99.90;;;2.70;97.74;101414.06;4906870;29;20238;-79
2023/01/28 11:04:22;;;;;;;0.20;0.20;;;2.90;99.90;;;2.70;97.53;101406.22;4908049;29;20275;-79
2023/01/28 11:07:20;;;;;;;0.20;0.20;;;3.10;99.90;;;2.67;97.06;101398.22;4897635;29;20319;-81
2023/01/28 11:09:50;;;;;;;0.20;0.20;;;2.90;99.90;;;2.72;96.77;101409.81;4897203;29;20232;-82
2023/01/28 11:12:25;;;;;;;0.13;0.13;;;3.00;99.90;;;2.71;96.75;101402.78;4890288;29;20622;-80